Chandler Park, Louisiana
Current Conditions -  °F | °C
As of 5:53 PM on Friday 24 Oct 2014 (Local Time) from KAEX Reporting Station
Clear Clear  
Wind Chill: 72°   Ceiling: Unl
Heat Index: 72°   Visibility: 10mi
Dew Point: 50°   Wind: 6mph
Humidity: 46%   Direction: 10°N
Pressure: 30.09"   Gusts: NA
Location:  31.2655°N, 92.4705°W
Report Text: KAEX 242253Z 01005KT 10SM CLR 22/10 A3009 RMK AO2 SLP192 T02220100
Loading
Personal Weather Stations






























Interactive Weather Map
Tropical Storm Tracking
New forecast layout! Learn more

10-Day Weather Forecast

Advertisements
Track Severe Weather on mobile